sensor_id;sensor_type;location;lat;lon;timestamp;pressure;altitude;pressure_sealevel;temperature;humidity
29815;BME280;16708;50.426;7.664;2023-03-25T00:03:39;977.85;;;7.17;100.00
29815;BME280;16708;50.426;7.664;2023-03-25T00:08:33;977.88;;;7.14;100.00
29815;BME280;16708;50.426;7.664;2023-03-25T00:13:28;977.84;;;7.01;100.00
29815;BME280;16708;50.426;7.664;2023-03-25T00:18:22;977.80;;;6.98;100.00
29815;BME280;16708;50.426;7.664;2023-03-25T00:23:15;977.85;;;6.98;100.00
29815;BME280;16708;50.426;7.664;2023-03-25T00:28:08;977.73;;;7.02;100.00
29815;BME280;16708;50.426;7.664;2023-03-25T00:33:02;977.76;;;7.02;100.00
29815;BME280;16708;50.426;7.664;2023-03-25T00:37:55;977.81;;;7.06;100.00
29815;BME280;16708;50.426;7.664;2023-03-25T00:42:49;977.75;;;7.03;100.00
29815;BME280;16708;50.426;7.664;2023-03-25T00:47:46;977.83;;;7.00;100.00
29815;BME280;16708;50.426;7.664;2023-03-25T00:52:38;977.74;;;7.06;100.00
29815;BME280;16708;50.426;7.664;2023-03-25T00:57:29;977.71;;;7.09;100.00
29815;BME280;16708;50.426;7.664;2023-03-25T01:02:23;977.70;;;7.08;100.00
29815;BME280;16708;50.426;7.664;2023-03-25T01:07:16;977.58;;;7.04;100.00
29815;BME280;16708;50.426;7.664;2023-03-25T01:12:09;977.60;;;7.05;100.00
29815;BME280;16708;50.426;7.664;2023-03-25T01:17:04;977.52;;;7.07;100.00
29815;BME280;16708;50.426;7.664;2023-03-25T01:21:58;977.48;;;7.10;100.00
29815;BME280;16708;50.426;7.664;2023-03-25T01:26:52;977.42;;;7.13;100.00
29815;BME280;16708;50.426;7.664;2023-03-25T01:31:46;977.33;;;7.11;100.00
29815;BME280;16708;50.426;7.664;2023-03-25T01:36:40;977.34;;;7.14;100.00
29815;BME280;16708;50.426;7.664;2023-03-25T01:46:26;977.33;;;7.14;100.00
29815;BME280;16708;50.426;7.664;2023-03-25T01:51:24;977.36;;;7.13;100.00
29815;BME280;16708;50.426;7.664;2023-03-25T01:56:14;977.29;;;7.02;100.00
29815;BME280;16708;50.426;7.664;2023-03-25T02:01:08;977.30;;;6.87;100.00
29815;BME280;16708;50.426;7.664;2023-03-25T02:06:00;977.31;;;6.73;100.00
29815;BME280;16708;50.426;7.664;2023-03-25T02:10:54;977.29;;;6.65;100.00
29815;BME280;16708;50.426;7.664;2023-03-25T02:35:22;977.26;;;6.56;100.00
29815;BME280;16708;50.426;7.664;2023-03-25T02:40:15;977.40;;;6.51;100.00
29815;BME280;16708;50.426;7.664;2023-03-25T02:45:08;977.28;;;6.54;100.00
29815;BME280;16708;50.426;7.664;2023-03-25T02:50:02;977.15;;;6.48;100.00
29815;BME280;16708;50.426;7.664;2023-03-25T02:54:57;977.17;;;6.47;100.00
29815;BME280;16708;50.426;7.664;2023-03-25T02:59:48;977.07;;;6.54;100.00
29815;BME280;16708;50.426;7.664;2023-03-25T03:09:37;976.95;;;6.62;100.00
29815;BME280;16708;50.426;7.664;2023-03-25T03:14:31;976.83;;;6.67;100.00
29815;BME280;16708;50.426;7.664;2023-03-25T03:19:25;976.79;;;6.72;100.00
29815;BME280;16708;50.426;7.664;2023-03-25T03:24:19;976.71;;;6.79;100.00
29815;BME280;16708;50.426;7.664;2023-03-25T03:29:14;976.84;;;6.87;100.00
29815;BME280;16708;50.426;7.664;2023-03-25T03:34:08;976.95;;;6.78;100.00
29815;BME280;16708;50.426;7.664;2023-03-25T03:39:02;977.08;;;6.68;100.00
29815;BME280;16708;50.426;7.664;2023-03-25T03:43:56;977.16;;;6.62;100.00
29815;BME280;16708;50.426;7.664;2023-03-25T03:48:51;977.18;;;6.61;100.00
29815;BME280;16708;50.426;7.664;2023-03-25T03:53:44;977.23;;;6.57;100.00
29815;BME280;16708;50.426;7.664;2023-03-25T03:58:37;977.33;;;6.59;100.00
29815;BME280;16708;50.426;7.664;2023-03-25T04:03:29;977.41;;;6.59;100.00
29815;BME280;16708;50.426;7.664;2023-03-25T04:13:17;977.38;;;6.58;100.00
29815;BME280;16708;50.426;7.664;2023-03-25T04:18:11;977.46;;;6.63;100.00
29815;BME280;16708;50.426;7.664;2023-03-25T04:23:05;977.48;;;6.67;100.00
29815;BME280;16708;50.426;7.664;2023-03-25T04:27:57;977.47;;;6.68;100.00
29815;BME280;16708;50.426;7.664;2023-03-25T04:32:51;977.49;;;6.57;100.00
29815;BME280;16708;50.426;7.664;2023-03-25T04:37:45;977.61;;;6.52;100.00
29815;BME280;16708;50.426;7.664;2023-03-25T04:42:39;977.47;;;6.47;100.00
29815;BME280;16708;50.426;7.664;2023-03-25T04:47:34;977.51;;;6.38;100.00
29815;BME280;16708;50.426;7.664;2023-03-25T04:52:27;977.61;;;6.31;100.00
29815;BME280;16708;50.426;7.664;2023-03-25T04:57:21;977.55;;;6.31;100.00
29815;BME280;16708;50.426;7.664;2023-03-25T05:02:16;977.60;;;6.32;100.00
29815;BME280;16708;50.426;7.664;2023-03-25T05:07:07;977.52;;;6.37;100.00
29815;BME280;16708;50.426;7.664;2023-03-25T05:12:01;977.62;;;6.38;100.00
29815;BME280;16708;50.426;7.664;2023-03-25T05:16:56;977.49;;;6.38;100.00
29815;BME280;16708;50.426;7.664;2023-03-25T05:21:49;977.61;;;6.36;100.00
29815;BME280;16708;50.426;7.664;2023-03-25T05:26:44;977.60;;;6.40;100.00
29815;BME280;16708;50.426;7.664;2023-03-25T05:31:38;977.64;;;6.43;100.00
29815;BME280;16708;50.426;7.664;2023-03-25T05:36:33;977.63;;;6.50;100.00
29815;BME280;16708;50.426;7.664;2023-03-25T05:41:27;977.76;;;6.61;100.00
29815;BME280;16708;50.426;7.664;2023-03-25T05:46:21;977.77;;;6.68;100.00
29815;BME280;16708;50.426;7.664;2023-03-25T05:51:15;977.81;;;6.66;100.00
29815;BME280;16708;50.426;7.664;2023-03-25T05:56:09;977.73;;;6.68;100.00
29815;BME280;16708;50.426;7.664;2023-03-25T06:01:03;977.68;;;6.64;100.00
29815;BME280;16708;50.426;7.664;2023-03-25T06:05:57;977.71;;;6.77;100.00
29815;BME280;16708;50.426;7.664;2023-03-25T06:10:50;977.74;;;6.95;100.00
29815;BME280;16708;50.426;7.664;2023-03-25T06:15:44;977.80;;;7.20;100.00
29815;BME280;16708;50.426;7.664;2023-03-25T06:20:39;977.89;;;7.23;100.00
29815;BME280;16708;50.426;7.664;2023-03-25T06:25:32;977.78;;;7.30;100.00
29815;BME280;16708;50.426;7.664;2023-03-25T06:30:27;977.80;;;7.30;100.00
29815;BME280;16708;50.426;7.664;2023-03-25T06:35:21;977.86;;;7.31;100.00
29815;BME280;16708;50.426;7.664;2023-03-25T06:40:15;977.92;;;7.12;100.00
29815;BME280;16708;50.426;7.664;2023-03-25T06:45:08;977.88;;;7.29;100.00
29815;BME280;16708;50.426;7.664;2023-03-25T06:50:02;977.91;;;7.13;100.00
29815;BME280;16708;50.426;7.664;2023-03-25T06:54:56;977.84;;;7.13;100.00
29815;BME280;16708;50.426;7.664;2023-03-25T06:59:51;977.70;;;7.29;100.00
29815;BME280;16708;50.426;7.664;2023-03-25T07:04:45;977.85;;;7.39;100.00
29815;BME280;16708;50.426;7.664;2023-03-25T07:09:39;977.81;;;7.24;100.00
29815;BME280;16708;50.426;7.664;2023-03-25T07:14:33;977.79;;;7.09;100.00
29815;BME280;16708;50.426;7.664;2023-03-25T07:19:28;977.73;;;7.12;100.00
29815;BME280;16708;50.426;7.664;2023-03-25T07:24:21;977.67;;;7.20;100.00
29815;BME280;16708;50.426;7.664;2023-03-25T07:29:12;977.63;;;7.32;100.00
29815;BME280;16708;50.426;7.664;2023-03-25T07:34:06;977.68;;;7.38;100.00
29815;BME280;16708;50.426;7.664;2023-03-25T07:39:00;977.72;;;7.46;100.00
29815;BME280;16708;50.426;7.664;2023-03-25T07:43:54;977.67;;;7.60;100.00
29815;BME280;16708;50.426;7.664;2023-03-25T07:48:48;977.68;;;8.38;100.00
29815;BME280;16708;50.426;7.664;2023-03-25T07:53:43;977.58;;;8.13;100.00
29815;BME280;16708;50.426;7.664;2023-03-25T07:58:37;977.61;;;8.15;100.00
29815;BME280;16708;50.426;7.664;2023-03-25T08:03:31;977.52;;;7.97;100.00
29815;BME280;16708;50.426;7.664;2023-03-25T08:08:25;977.53;;;7.94;100.00
29815;BME280;16708;50.426;7.664;2023-03-25T08:13:18;977.60;;;7.94;100.00
29815;BME280;16708;50.426;7.664;2023-03-25T08:18:12;977.62;;;7.95;100.00
29815;BME280;16708;50.426;7.664;2023-03-25T08:23:06;977.54;;;7.90;100.00
29815;BME280;16708;50.426;7.664;2023-03-25T08:28:00;977.44;;;7.86;100.00
29815;BME280;16708;50.426;7.664;2023-03-25T08:32:54;977.57;;;7.68;100.00
29815;BME280;16708;50.426;7.664;2023-03-25T08:37:48;977.92;;;6.82;100.00
29815;BME280;16708;50.426;7.664;2023-03-25T08:42:42;978.25;;;6.10;100.00
29815;BME280;16708;50.426;7.664;2023-03-25T08:47:35;978.16;;;6.05;100.00
29815;BME280;16708;50.426;7.664;2023-03-25T08:52:30;978.37;;;6.33;100.00
29815;BME280;16708;50.426;7.664;2023-03-25T08:57:24;978.42;;;6.22;100.00
29815;BME280;16708;50.426;7.664;2023-03-25T09:02:17;978.46;;;6.61;100.00
29815;BME280;16708;50.426;7.664;2023-03-25T09:07:12;978.49;;;6.93;100.00
29815;BME280;16708;50.426;7.664;2023-03-25T09:12:05;978.55;;;7.34;100.00
29815;BME280;16708;50.426;7.664;2023-03-25T09:17:00;978.64;;;7.29;100.00
29815;BME280;16708;50.426;7.664;2023-03-25T09:21:51;978.57;;;7.04;100.00
29815;BME280;16708;50.426;7.664;2023-03-25T09:26:45;978.52;;;9.34;100.00
29815;BME280;16708;50.426;7.664;2023-03-25T09:31:41;978.53;;;11.79;100.00
29815;BME280;16708;50.426;7.664;2023-03-25T09:36:37;978.45;;;12.28;100.00
29815;BME280;16708;50.426;7.664;2023-03-25T09:41:34;978.42;;;10.88;100.00
29815;BME280;16708;50.426;7.664;2023-03-25T09:46:25;978.46;;;8.45;100.00
29815;BME280;16708;50.426;7.664;2023-03-25T09:51:18;978.57;;;8.07;100.00
29815;BME280;16708;50.426;7.664;2023-03-25T09:56:11;978.54;;;9.02;100.00
29815;BME280;16708;50.426;7.664;2023-03-25T10:06:00;978.56;;;9.32;100.00
29815;BME280;16708;50.426;7.664;2023-03-25T10:15:47;978.51;;;8.88;100.00
29815;BME280;16708;50.426;7.664;2023-03-25T10:20:40;978.66;;;8.62;100.00
29815;BME280;16708;50.426;7.664;2023-03-25T10:30:27;978.55;;;9.03;100.00
29815;BME280;16708;50.426;7.664;2023-03-25T10:40:13;978.68;;;9.33;100.00
29815;BME280;16708;50.426;7.664;2023-03-25T10:45:07;978.77;;;9.38;100.00
29815;BME280;16708;50.426;7.664;2023-03-25T10:50:02;978.65;;;9.59;100.00
29815;BME280;16708;50.426;7.664;2023-03-25T10:54:56;978.58;;;9.90;100.00
29815;BME280;16708;50.426;7.664;2023-03-25T10:59:49;978.59;;;10.21;100.00
29815;BME280;16708;50.426;7.664;2023-03-25T11:04:40;978.62;;;10.42;100.00
29815;BME280;16708;50.426;7.664;2023-03-25T11:14:30;978.56;;;11.97;68.27
29815;BME280;16708;50.426;7.664;2023-03-25T11:24:19;978.55;;;13.78;60.54
29815;BME280;16708;50.426;7.664;2023-03-25T11:29:13;978.50;;;13.44;69.05
29815;BME280;16708;50.426;7.664;2023-03-25T11:34:07;978.69;;;12.63;64.07
29815;BME280;16708;50.426;7.664;2023-03-25T11:39:01;978.87;;;11.42;86.06
29815;BME280;16708;50.426;7.664;2023-03-25T11:43:54;979.04;;;10.38;100.00
29815;BME280;16708;50.426;7.664;2023-03-25T11:48:47;978.67;;;12.74;100.00
29815;BME280;16708;50.426;7.664;2023-03-25T11:53:42;978.60;;;13.36;100.00
29815;BME280;16708;50.426;7.664;2023-03-25T11:58:38;978.43;;;14.61;72.35
29815;BME280;16708;50.426;7.664;2023-03-25T12:08:25;978.56;;;10.71;90.35
29815;BME280;16708;50.426;7.664;2023-03-25T12:27:59;978.64;;;12.86;100.00
29815;BME280;16708;50.426;7.664;2023-03-25T13:07:07;978.40;;;10.24;100.00
29815;BME280;16708;50.426;7.664;2023-03-25T13:12:01;978.82;;;15.12;79.19
29815;BME280;16708;50.426;7.664;2023-03-25T13:16:56;978.36;;;14.84;71.10
29815;BME280;16708;50.426;7.664;2023-03-25T13:21:51;978.26;;;12.52;80.67
29815;BME280;16708;50.426;7.664;2023-03-25T13:26:45;978.28;;;11.93;84.73
29815;BME280;16708;50.426;7.664;2023-03-25T13:31:39;978.14;;;12.80;73.80
29815;BME280;16708;50.426;7.664;2023-03-25T13:41:25;978.05;;;11.93;71.76
29815;BME280;16708;50.426;7.664;2023-03-25T13:46:19;977.77;;;11.80;69.00
29815;BME280;16708;50.426;7.664;2023-03-25T13:51:13;977.98;;;11.67;67.29
29815;BME280;16708;50.426;7.664;2023-03-25T14:10:47;977.88;;;12.17;54.66
29815;BME280;16708;50.426;7.664;2023-03-25T14:15:42;977.84;;;11.97;54.68
29815;BME280;16708;50.426;7.664;2023-03-25T14:20:36;977.83;;;12.00;56.32
29815;BME280;16708;50.426;7.664;2023-03-25T14:25:29;977.78;;;11.83;61.08
29815;BME280;16708;50.426;7.664;2023-03-25T14:54:51;977.59;;;11.71;62.89
29815;BME280;16708;50.426;7.664;2023-03-25T14:59:44;977.67;;;11.62;64.24
29815;BME280;16708;50.426;7.664;2023-03-25T15:09:32;977.75;;;11.62;60.44
29815;BME280;16708;50.426;7.664;2023-03-25T15:14:25;977.96;;;11.70;62.91
29815;BME280;16708;50.426;7.664;2023-03-25T15:24:12;977.85;;;11.42;60.86
29815;BME280;16708;50.426;7.664;2023-03-25T15:38:53;977.73;;;11.60;64.56
29815;BME280;16708;50.426;7.664;2023-03-25T15:53:36;977.84;;;11.75;69.31
29815;BME280;16708;50.426;7.664;2023-03-25T15:58:30;977.80;;;11.60;72.80
29815;BME280;16708;50.426;7.664;2023-03-25T16:03:24;977.85;;;11.45;76.11
29815;BME280;16708;50.426;7.664;2023-03-25T16:08:17;977.77;;;11.31;81.54
29815;BME280;16708;50.426;7.664;2023-03-25T16:13:11;977.91;;;11.12;85.48
29815;BME280;16708;50.426;7.664;2023-03-25T16:18:04;978.06;;;11.18;87.40
29815;BME280;16708;50.426;7.664;2023-03-25T16:22:59;977.85;;;11.52;89.52
29815;BME280;16708;50.426;7.664;2023-03-25T16:27:53;978.45;;;13.28;75.51
29815;BME280;16708;50.426;7.664;2023-03-25T16:32:44;978.20;;;13.83;65.96
29815;BME280;16708;50.426;7.664;2023-03-25T16:37:39;978.37;;;11.86;82.14
29815;BME280;16708;50.426;7.664;2023-03-25T16:42:34;978.53;;;12.90;76.75
29815;BME280;16708;50.426;7.664;2023-03-25T16:47:27;978.44;;;11.32;95.38
29815;BME280;16708;50.426;7.664;2023-03-25T17:07:03;978.58;;;13.49;73.54
29815;BME280;16708;50.426;7.664;2023-03-25T17:11:57;978.56;;;12.20;83.34
29815;BME280;16708;50.426;7.664;2023-03-25T17:16:52;978.60;;;11.80;93.30
29815;BME280;16708;50.426;7.664;2023-03-25T17:31:27;978.81;;;10.83;100.00
29815;BME280;16708;50.426;7.664;2023-03-25T17:36:21;978.74;;;10.38;100.00
29815;BME280;16708;50.426;7.664;2023-03-25T17:41:11;978.81;;;10.27;100.00
29815;BME280;16708;50.426;7.664;2023-03-25T17:50:57;978.88;;;10.07;100.00
29815;BME280;16708;50.426;7.664;2023-03-25T17:55:51;978.84;;;9.87;100.00
29815;BME280;16708;50.426;7.664;2023-03-25T18:00:45;978.89;;;9.63;100.00
29815;BME280;16708;50.426;7.664;2023-03-25T18:05:39;978.88;;;9.50;100.00
29815;BME280;16708;50.426;7.664;2023-03-25T18:10:32;979.00;;;9.40;100.00
29815;BME280;16708;50.426;7.664;2023-03-25T18:20:20;979.21;;;9.14;100.00
29815;BME280;16708;50.426;7.664;2023-03-25T18:30:08;979.28;;;8.90;100.00
29815;BME280;16708;50.426;7.664;2023-03-25T18:35:01;979.23;;;8.81;100.00
29815;BME280;16708;50.426;7.664;2023-03-25T18:44:49;979.37;;;8.68;100.00
29815;BME280;16708;50.426;7.664;2023-03-25T18:54:40;979.61;;;8.56;100.00
29815;BME280;16708;50.426;7.664;2023-03-25T18:59:29;979.63;;;8.46;100.00
29815;BME280;16708;50.426;7.664;2023-03-25T19:04:23;979.62;;;8.31;100.00
29815;BME280;16708;50.426;7.664;2023-03-25T19:09:17;979.69;;;8.51;100.00
29815;BME280;16708;50.426;7.664;2023-03-25T19:14:10;979.77;;;8.18;100.00
29815;BME280;16708;50.426;7.664;2023-03-25T19:19:02;979.87;;;8.21;100.00
29815;BME280;16708;50.426;7.664;2023-03-25T19:23:57;979.83;;;8.27;100.00
29815;BME280;16708;50.426;7.664;2023-03-25T19:28:50;979.90;;;8.25;100.00
29815;BME280;16708;50.426;7.664;2023-03-25T19:33:45;979.97;;;8.26;100.00
29815;BME280;16708;50.426;7.664;2023-03-25T19:38:39;979.98;;;8.27;100.00
29815;BME280;16708;50.426;7.664;2023-03-25T19:43:33;979.94;;;8.24;100.00
29815;BME280;16708;50.426;7.664;2023-03-25T19:48:26;979.85;;;8.21;100.00
29815;BME280;16708;50.426;7.664;2023-03-25T19:53:20;979.85;;;8.21;100.00
29815;BME280;16708;50.426;7.664;2023-03-25T19:58:13;979.96;;;8.22;100.00
29815;BME280;16708;50.426;7.664;2023-03-25T20:03:07;979.83;;;8.19;100.00
29815;BME280;16708;50.426;7.664;2023-03-25T20:08:01;979.69;;;8.26;100.00
29815;BME280;16708;50.426;7.664;2023-03-25T20:12:55;979.64;;;8.23;100.00
29815;BME280;16708;50.426;7.664;2023-03-25T20:17:49;979.65;;;8.17;100.00
29815;BME280;16708;50.426;7.664;2023-03-25T20:22:43;979.69;;;8.07;100.00
29815;BME280;16708;50.426;7.664;2023-03-25T20:27:37;979.69;;;7.99;100.00
29815;BME280;16708;50.426;7.664;2023-03-25T20:32:31;979.45;;;8.03;100.00
29815;BME280;16708;50.426;7.664;2023-03-25T20:37:24;979.56;;;7.99;100.00
29815;BME280;16708;50.426;7.664;2023-03-25T20:42:18;979.41;;;7.95;100.00
29815;BME280;16708;50.426;7.664;2023-03-25T20:47:12;979.53;;;7.98;100.00
29815;BME280;16708;50.426;7.664;2023-03-25T20:52:06;979.58;;;7.85;100.00
29815;BME280;16708;50.426;7.664;2023-03-25T20:57:00;979.52;;;7.90;100.00
29815;BME280;16708;50.426;7.664;2023-03-25T21:01:54;979.52;;;7.89;100.00
29815;BME280;16708;50.426;7.664;2023-03-25T21:06:46;979.54;;;7.78;100.00
29815;BME280;16708;50.426;7.664;2023-03-25T21:11:40;979.65;;;7.78;100.00
29815;BME280;16708;50.426;7.664;2023-03-25T21:16:34;979.92;;;7.77;100.00
29815;BME280;16708;50.426;7.664;2023-03-25T21:21:31;979.88;;;7.97;100.00
29815;BME280;16708;50.426;7.664;2023-03-25T21:26:22;979.88;;;8.00;100.00
29815;BME280;16708;50.426;7.664;2023-03-25T21:31:14;979.97;;;7.93;100.00
29815;BME280;16708;50.426;7.664;2023-03-25T21:36:08;979.89;;;7.93;100.00
29815;BME280;16708;50.426;7.664;2023-03-25T21:41:02;979.86;;;7.97;100.00
29815;BME280;16708;50.426;7.664;2023-03-25T21:45:56;979.86;;;7.92;100.00
29815;BME280;16708;50.426;7.664;2023-03-25T21:50:50;980.00;;;7.91;100.00
29815;BME280;16708;50.426;7.664;2023-03-25T21:55:41;980.15;;;7.88;100.00
29815;BME280;16708;50.426;7.664;2023-03-25T22:00:35;980.05;;;7.88;100.00
29815;BME280;16708;50.426;7.664;2023-03-25T22:05:30;980.10;;;7.83;100.00
29815;BME280;16708;50.426;7.664;2023-03-25T22:10:22;980.04;;;7.76;100.00
29815;BME280;16708;50.426;7.664;2023-03-25T22:15:15;980.19;;;7.68;100.00
29815;BME280;16708;50.426;7.664;2023-03-25T22:20:09;980.10;;;7.64;100.00
29815;BME280;16708;50.426;7.664;2023-03-25T22:25:03;980.08;;;7.58;100.00
29815;BME280;16708;50.426;7.664;2023-03-25T22:29:57;980.23;;;7.48;100.00
29815;BME280;16708;50.426;7.664;2023-03-25T22:34:51;980.16;;;7.44;100.00
29815;BME280;16708;50.426;7.664;2023-03-25T22:39:44;980.22;;;7.35;100.00
29815;BME280;16708;50.426;7.664;2023-03-25T22:44:38;980.13;;;7.34;100.00
29815;BME280;16708;50.426;7.664;2023-03-25T22:49:32;980.04;;;7.38;100.00
29815;BME280;16708;50.426;7.664;2023-03-25T22:54:25;980.05;;;7.36;100.00
29815;BME280;16708;50.426;7.664;2023-03-25T22:59:18;980.16;;;7.33;100.00
29815;BME280;16708;50.426;7.664;2023-03-25T23:04:10;980.27;;;7.25;100.00
29815;BME280;16708;50.426;7.664;2023-03-25T23:09:04;980.20;;;7.21;100.00
29815;BME280;16708;50.426;7.664;2023-03-25T23:13:58;980.22;;;7.20;100.00
29815;BME280;16708;50.426;7.664;2023-03-25T23:18:52;980.27;;;7.13;100.00
29815;BME280;16708;50.426;7.664;2023-03-25T23:23:46;980.27;;;7.11;100.00
29815;BME280;16708;50.426;7.664;2023-03-25T23:28:40;980.09;;;7.03;100.00
29815;BME280;16708;50.426;7.664;2023-03-25T23:33:34;980.10;;;7.01;100.00
29815;BME280;16708;50.426;7.664;2023-03-25T23:38:28;980.16;;;6.93;100.00
29815;BME280;16708;50.426;7.664;2023-03-25T23:43:22;980.12;;;7.07;100.00
29815;BME280;16708;50.426;7.664;2023-03-25T23:48:13;980.31;;;7.14;100.00
29815;BME280;16708;50.426;7.664;2023-03-25T23:53:06;980.22;;;7.14;100.00
29815;BME280;16708;50.426;7.664;2023-03-25T23:58:00;980.24;;;7.11;100.00
